sensor_id;sensor_type;location;lat;lon;timestamp;P1;durP1;ratioP1;P2;durP2;ratioP2
2119;SDS011;1066;52.540;13.420;2023-05-10T00:01:52;5.53;;;5.03;;
2119;SDS011;1066;52.540;13.420;2023-05-10T00:05:09;6.17;;;5.67;;
2119;SDS011;1066;52.540;13.420;2023-05-10T00:08:27;7.40;;;5.73;;
2119;SDS011;1066;52.540;13.420;2023-05-10T00:11:45;13.83;;;6.33;;
2119;SDS011;1066;52.540;13.420;2023-05-10T00:15:03;5.80;;;5.30;;
2119;SDS011;1066;52.540;13.420;2023-05-10T00:18:21;6.37;;;5.77;;
2119;SDS011;1066;52.540;13.420;2023-05-10T00:21:39;5.73;;;5.23;;
2119;SDS011;1066;52.540;13.420;2023-05-10T00:24:57;8.00;;;5.53;;
2119;SDS011;1066;52.540;13.420;2023-05-10T00:28:15;5.80;;;5.30;;
2119;SDS011;1066;52.540;13.420;2023-05-10T00:31:33;5.70;;;5.20;;
2119;SDS011;1066;52.540;13.420;2023-05-10T00:34:51;8.50;;;6.13;;
2119;SDS011;1066;52.540;13.420;2023-05-10T00:38:09;6.43;;;5.73;;
2119;SDS011;1066;52.540;13.420;2023-05-10T00:41:29;7.23;;;5.30;;
2119;SDS011;1066;52.540;13.420;2023-05-10T00:44:47;6.67;;;6.07;;
2119;SDS011;1066;52.540;13.420;2023-05-10T00:48:06;6.43;;;5.83;;
2119;SDS011;1066;52.540;13.420;2023-05-10T00:51:24;6.47;;;5.87;;
2119;SDS011;1066;52.540;13.420;2023-05-10T00:54:42;6.20;;;5.60;;
2119;SDS011;1066;52.540;13.420;2023-05-10T00:58:00;6.10;;;5.60;;
2119;SDS011;1066;52.540;13.420;2023-05-10T01:01:18;6.13;;;5.60;;
2119;SDS011;1066;52.540;13.420;2023-05-10T01:04:38;6.07;;;5.57;;
2119;SDS011;1066;52.540;13.420;2023-05-10T01:07:56;6.13;;;5.53;;
2119;SDS011;1066;52.540;13.420;2023-05-10T01:11:14;10.37;;;6.43;;
2119;SDS011;1066;52.540;13.420;2023-05-10T01:14:32;6.57;;;5.70;;
2119;SDS011;1066;52.540;13.420;2023-05-10T01:17:50;5.80;;;5.13;;
2119;SDS011;1066;52.540;13.420;2023-05-10T01:32:31;7.43;;;5.20;;
2119;SDS011;1066;52.540;13.420;2023-05-10T01:39:36;6.37;;;5.87;;
2119;SDS011;1066;52.540;13.420;2023-05-10T01:43:01;6.27;;;5.67;;
2119;SDS011;1066;52.540;13.420;2023-05-10T01:46:43;6.27;;;5.40;;
2119;SDS011;1066;52.540;13.420;2023-05-10T01:50:10;5.93;;;5.33;;
2119;SDS011;1066;52.540;13.420;2023-05-10T01:53:28;6.00;;;5.40;;
2119;SDS011;1066;52.540;13.420;2023-05-10T01:56:47;5.67;;;5.00;;
2119;SDS011;1066;52.540;13.420;2023-05-10T02:00:09;6.93;;;6.20;;
2119;SDS011;1066;52.540;13.420;2023-05-10T02:03:28;11.07;;;9.60;;
2119;SDS011;1066;52.540;13.420;2023-05-10T02:06:47;7.13;;;6.43;;
2119;SDS011;1066;52.540;13.420;2023-05-10T02:10:05;8.27;;;7.37;;
2119;SDS011;1066;52.540;13.420;2023-05-10T02:13:24;6.87;;;6.03;;
2119;SDS011;1066;52.540;13.420;2023-05-10T02:16:43;6.73;;;6.10;;
2119;SDS011;1066;52.540;13.420;2023-05-10T02:20:03;6.67;;;5.97;;
2119;SDS011;1066;52.540;13.420;2023-05-10T02:23:21;6.50;;;5.90;;
2119;SDS011;1066;52.540;13.420;2023-05-10T02:26:39;6.90;;;6.30;;
2119;SDS011;1066;52.540;13.420;2023-05-10T02:29:58;6.40;;;5.80;;
2119;SDS011;1066;52.540;13.420;2023-05-10T02:33:16;6.93;;;6.33;;
2119;SDS011;1066;52.540;13.420;2023-05-10T02:36:34;6.63;;;6.03;;
2119;SDS011;1066;52.540;13.420;2023-05-10T02:39:53;8.07;;;7.30;;
2119;SDS011;1066;52.540;13.420;2023-05-10T02:43:12;10.60;;;8.90;;
2119;SDS011;1066;52.540;13.420;2023-05-10T02:46:32;6.40;;;5.90;;
2119;SDS011;1066;52.540;13.420;2023-05-10T02:49:50;9.90;;;9.00;;
2119;SDS011;1066;52.540;13.420;2023-05-10T02:53:10;10.40;;;8.40;;
2119;SDS011;1066;52.540;13.420;2023-05-10T02:56:33;10.67;;;7.23;;
2119;SDS011;1066;52.540;13.420;2023-05-10T02:59:53;8.70;;;7.30;;
2119;SDS011;1066;52.540;13.420;2023-05-10T03:03:11;6.33;;;5.70;;
2119;SDS011;1066;52.540;13.420;2023-05-10T03:06:29;12.53;;;11.23;;
2119;SDS011;1066;52.540;13.420;2023-05-10T03:09:48;10.53;;;8.40;;
2119;SDS011;1066;52.540;13.420;2023-05-10T03:13:22;9.57;;;8.70;;
2119;SDS011;1066;52.540;13.420;2023-05-10T03:17:00;9.80;;;6.20;;
2119;SDS011;1066;52.540;13.420;2023-05-10T03:20:31;7.73;;;6.87;;
2119;SDS011;1066;52.540;13.420;2023-05-10T03:23:53;7.40;;;6.50;;
2119;SDS011;1066;52.540;13.420;2023-05-10T03:27:12;5.90;;;5.30;;
2119;SDS011;1066;52.540;13.420;2023-05-10T03:30:31;10.40;;;9.40;;
2119;SDS011;1066;52.540;13.420;2023-05-10T03:33:51;9.87;;;6.40;;
2119;SDS011;1066;52.540;13.420;2023-05-10T03:37:09;8.97;;;6.27;;
2119;SDS011;1066;52.540;13.420;2023-05-10T03:40:27;6.03;;;5.37;;
2119;SDS011;1066;52.540;13.420;2023-05-10T03:43:46;10.10;;;7.63;;
2119;SDS011;1066;52.540;13.420;2023-05-10T03:47:04;7.13;;;6.23;;
2119;SDS011;1066;52.540;13.420;2023-05-10T03:50:22;10.70;;;8.33;;
2119;SDS011;1066;52.540;13.420;2023-05-10T03:53:40;8.30;;;7.50;;
2119;SDS011;1066;52.540;13.420;2023-05-10T03:56:58;8.97;;;7.80;;
2119;SDS011;1066;52.540;13.420;2023-05-10T04:00:16;6.83;;;5.67;;
2119;SDS011;1066;52.540;13.420;2023-05-10T04:03:34;9.93;;;7.60;;
2119;SDS011;1066;52.540;13.420;2023-05-10T04:06:52;8.80;;;6.93;;
2119;SDS011;1066;52.540;13.420;2023-05-10T04:10:10;9.33;;;7.63;;
2119;SDS011;1066;52.540;13.420;2023-05-10T04:13:32;6.43;;;5.60;;
2119;SDS011;1066;52.540;13.420;2023-05-10T04:16:50;9.90;;;8.30;;
2119;SDS011;1066;52.540;13.420;2023-05-10T04:20:08;5.70;;;5.13;;
2119;SDS011;1066;52.540;13.420;2023-05-10T04:23:26;10.83;;;9.00;;
2119;SDS011;1066;52.540;13.420;2023-05-10T04:26:44;11.40;;;9.57;;
2119;SDS011;1066;52.540;13.420;2023-05-10T04:30:02;27.63;;;20.87;;
2119;SDS011;1066;52.540;13.420;2023-05-10T04:33:30;8.60;;;7.70;;
2119;SDS011;1066;52.540;13.420;2023-05-10T04:36:48;6.03;;;5.13;;
2119;SDS011;1066;52.540;13.420;2023-05-10T04:40:06;6.97;;;6.37;;
2119;SDS011;1066;52.540;13.420;2023-05-10T04:43:34;6.00;;;5.33;;
2119;SDS011;1066;52.540;13.420;2023-05-10T04:46:52;5.03;;;4.63;;
2119;SDS011;1066;52.540;13.420;2023-05-10T04:50:09;7.53;;;6.73;;
2119;SDS011;1066;52.540;13.420;2023-05-10T04:53:28;6.10;;;5.40;;
2119;SDS011;1066;52.540;13.420;2023-05-10T04:56:46;7.73;;;5.10;;
2119;SDS011;1066;52.540;13.420;2023-05-10T05:00:04;6.93;;;6.23;;
2119;SDS011;1066;52.540;13.420;2023-05-10T05:03:28;7.20;;;5.90;;
2119;SDS011;1066;52.540;13.420;2023-05-10T05:06:48;5.27;;;4.77;;
2119;SDS011;1066;52.540;13.420;2023-05-10T05:10:06;5.13;;;4.60;;
2119;SDS011;1066;52.540;13.420;2023-05-10T05:13:24;7.07;;;5.10;;
2119;SDS011;1066;52.540;13.420;2023-05-10T05:16:42;6.40;;;4.60;;
2119;SDS011;1066;52.540;13.420;2023-05-10T05:20:00;7.00;;;4.80;;
2119;SDS011;1066;52.540;13.420;2023-05-10T05:23:18;5.53;;;4.80;;
2119;SDS011;1066;52.540;13.420;2023-05-10T05:26:37;6.30;;;4.33;;
2119;SDS011;1066;52.540;13.420;2023-05-10T05:29:56;5.93;;;4.60;;
2119;SDS011;1066;52.540;13.420;2023-05-10T05:33:14;6.00;;;5.10;;
2119;SDS011;1066;52.540;13.420;2023-05-10T05:36:32;4.57;;;4.17;;
2119;SDS011;1066;52.540;13.420;2023-05-10T05:39:50;5.33;;;4.30;;
2119;SDS011;1066;52.540;13.420;2023-05-10T05:43:07;9.00;;;4.93;;
2119;SDS011;1066;52.540;13.420;2023-05-10T05:46:25;4.30;;;3.90;;
2119;SDS011;1066;52.540;13.420;2023-05-10T05:49:43;6.13;;;5.53;;
2119;SDS011;1066;52.540;13.420;2023-05-10T05:53:01;5.87;;;4.90;;
2119;SDS011;1066;52.540;13.420;2023-05-10T05:56:19;5.47;;;4.07;;
2119;SDS011;1066;52.540;13.420;2023-05-10T05:59:37;4.40;;;4.10;;
2119;SDS011;1066;52.540;13.420;2023-05-10T06:02:54;5.50;;;4.83;;
2119;SDS011;1066;52.540;13.420;2023-05-10T06:06:12;6.10;;;4.50;;
2119;SDS011;1066;52.540;13.420;2023-05-10T06:09:30;4.87;;;3.80;;
2119;SDS011;1066;52.540;13.420;2023-05-10T06:12:49;5.27;;;3.90;;
2119;SDS011;1066;52.540;13.420;2023-05-10T06:16:07;4.97;;;3.30;;
2119;SDS011;1066;52.540;13.420;2023-05-10T06:19:25;5.03;;;3.90;;
2119;SDS011;1066;52.540;13.420;2023-05-10T06:22:43;3.83;;;3.47;;
2119;SDS011;1066;52.540;13.420;2023-05-10T06:26:01;7.03;;;4.37;;
2119;SDS011;1066;52.540;13.420;2023-05-10T06:29:19;3.90;;;3.20;;
2119;SDS011;1066;52.540;13.420;2023-05-10T06:32:38;4.60;;;4.20;;
2119;SDS011;1066;52.540;13.420;2023-05-10T06:35:56;3.00;;;2.80;;
2119;SDS011;1066;52.540;13.420;2023-05-10T06:39:13;3.57;;;3.27;;
2119;SDS011;1066;52.540;13.420;2023-05-10T06:42:32;6.13;;;5.50;;
2119;SDS011;1066;52.540;13.420;2023-05-10T06:45:51;5.00;;;3.87;;
2119;SDS011;1066;52.540;13.420;2023-05-10T06:49:08;7.57;;;5.17;;
2119;SDS011;1066;52.540;13.420;2023-05-10T06:52:26;5.50;;;4.00;;
2119;SDS011;1066;52.540;13.420;2023-05-10T06:55:44;4.50;;;4.10;;
2119;SDS011;1066;52.540;13.420;2023-05-10T06:59:02;5.50;;;4.03;;
2119;SDS011;1066;52.540;13.420;2023-05-10T07:02:21;4.43;;;3.70;;
2119;SDS011;1066;52.540;13.420;2023-05-10T07:05:39;5.27;;;4.10;;
2119;SDS011;1066;52.540;13.420;2023-05-10T07:08:58;4.83;;;3.20;;
2119;SDS011;1066;52.540;13.420;2023-05-10T07:12:16;4.77;;;3.30;;
2119;SDS011;1066;52.540;13.420;2023-05-10T07:15:35;4.37;;;3.73;;
2119;SDS011;1066;52.540;13.420;2023-05-10T07:18:53;4.67;;;3.70;;
2119;SDS011;1066;52.540;13.420;2023-05-10T07:22:11;3.90;;;3.50;;
2119;SDS011;1066;52.540;13.420;2023-05-10T07:25:29;6.00;;;3.97;;
2119;SDS011;1066;52.540;13.420;2023-05-10T07:28:47;7.20;;;4.40;;
2119;SDS011;1066;52.540;13.420;2023-05-10T07:32:05;7.73;;;3.73;;
2119;SDS011;1066;52.540;13.420;2023-05-10T07:35:24;7.40;;;3.80;;
2119;SDS011;1066;52.540;13.420;2023-05-10T07:38:41;4.17;;;3.37;;
2119;SDS011;1066;52.540;13.420;2023-05-10T07:42:00;4.83;;;3.80;;
2119;SDS011;1066;52.540;13.420;2023-05-10T07:45:17;4.23;;;3.27;;
2119;SDS011;1066;52.540;13.420;2023-05-10T07:48:36;3.67;;;3.37;;
2119;SDS011;1066;52.540;13.420;2023-05-10T07:51:54;2.80;;;2.60;;
2119;SDS011;1066;52.540;13.420;2023-05-10T07:55:12;7.03;;;3.90;;
2119;SDS011;1066;52.540;13.420;2023-05-10T07:58:47;3.47;;;3.00;;
2119;SDS011;1066;52.540;13.420;2023-05-10T08:02:05;3.70;;;3.40;;
2119;SDS011;1066;52.540;13.420;2023-05-10T08:05:23;7.53;;;3.10;;
2119;SDS011;1066;52.540;13.420;2023-05-10T08:08:42;3.90;;;3.10;;
2119;SDS011;1066;52.540;13.420;2023-05-10T08:12:00;5.67;;;3.00;;
2119;SDS011;1066;52.540;13.420;2023-05-10T08:15:17;5.40;;;3.37;;
2119;SDS011;1066;52.540;13.420;2023-05-10T08:18:36;4.40;;;3.40;;
2119;SDS011;1066;52.540;13.420;2023-05-10T08:21:54;5.20;;;3.60;;
2119;SDS011;1066;52.540;13.420;2023-05-10T08:25:12;5.10;;;3.70;;
2119;SDS011;1066;52.540;13.420;2023-05-10T08:28:30;3.43;;;3.13;;
2119;SDS011;1066;52.540;13.420;2023-05-10T08:31:47;6.63;;;3.40;;
2119;SDS011;1066;52.540;13.420;2023-05-10T08:35:05;3.40;;;3.10;;
2119;SDS011;1066;52.540;13.420;2023-05-10T08:38:23;6.27;;;3.70;;
2119;SDS011;1066;52.540;13.420;2023-05-10T08:41:41;4.27;;;3.17;;
2119;SDS011;1066;52.540;13.420;2023-05-10T08:45:02;3.67;;;3.37;;
2119;SDS011;1066;52.540;13.420;2023-05-10T08:48:24;5.73;;;3.60;;
2119;SDS011;1066;52.540;13.420;2023-05-10T08:51:49;5.33;;;3.30;;
2119;SDS011;1066;52.540;13.420;2023-05-10T08:55:08;7.20;;;3.37;;
2119;SDS011;1066;52.540;13.420;2023-05-10T08:58:27;4.37;;;3.70;;
2119;SDS011;1066;52.540;13.420;2023-05-10T09:01:45;2.90;;;2.70;;
2119;SDS011;1066;52.540;13.420;2023-05-10T09:05:03;9.77;;;3.80;;
2119;SDS011;1066;52.540;13.420;2023-05-10T09:08:25;3.50;;;3.20;;
2119;SDS011;1066;52.540;13.420;2023-05-10T09:11:43;4.73;;;3.50;;
2119;SDS011;1066;52.540;13.420;2023-05-10T09:15:01;4.90;;;3.40;;
2119;SDS011;1066;52.540;13.420;2023-05-10T09:18:19;4.10;;;3.70;;
2119;SDS011;1066;52.540;13.420;2023-05-10T09:21:37;4.10;;;3.30;;
2119;SDS011;1066;52.540;13.420;2023-05-10T09:28:30;4.20;;;3.57;;
2119;SDS011;1066;52.540;13.420;2023-05-10T09:31:49;3.83;;;3.53;;
2119;SDS011;1066;52.540;13.420;2023-05-10T09:35:12;4.40;;;3.17;;
2119;SDS011;1066;52.540;13.420;2023-05-10T09:38:44;3.77;;;3.47;;
2119;SDS011;1066;52.540;13.420;2023-05-10T09:42:06;4.27;;;3.07;;
2119;SDS011;1066;52.540;13.420;2023-05-10T09:45:33;6.30;;;3.70;;
2119;SDS011;1066;52.540;13.420;2023-05-10T09:48:51;3.53;;;3.23;;
2119;SDS011;1066;52.540;13.420;2023-05-10T09:52:09;4.50;;;3.93;;
2119;SDS011;1066;52.540;13.420;2023-05-10T09:55:38;3.63;;;3.00;;
2119;SDS011;1066;52.540;13.420;2023-05-10T09:59:03;3.80;;;3.10;;
2119;SDS011;1066;52.540;13.420;2023-05-10T10:02:27;4.40;;;3.50;;
2119;SDS011;1066;52.540;13.420;2023-05-10T10:05:46;6.93;;;4.17;;
2119;SDS011;1066;52.540;13.420;2023-05-10T10:09:05;3.73;;;3.23;;
2119;SDS011;1066;52.540;13.420;2023-05-10T10:12:22;4.53;;;3.20;;
2119;SDS011;1066;52.540;13.420;2023-05-10T10:15:42;6.60;;;3.57;;
2119;SDS011;1066;52.540;13.420;2023-05-10T10:19:00;4.23;;;3.40;;
2119;SDS011;1066;52.540;13.420;2023-05-10T10:22:18;4.23;;;3.87;;
2119;SDS011;1066;52.540;13.420;2023-05-10T10:25:35;3.67;;;3.07;;
2119;SDS011;1066;52.540;13.420;2023-05-10T10:29:00;4.67;;;3.07;;
2119;SDS011;1066;52.540;13.420;2023-05-10T10:36:21;4.30;;;3.70;;
2119;SDS011;1066;52.540;13.420;2023-05-10T10:39:39;4.07;;;3.70;;
2119;SDS011;1066;52.540;13.420;2023-05-10T10:42:59;3.63;;;3.00;;
2119;SDS011;1066;52.540;13.420;2023-05-10T10:50:46;4.57;;;3.47;;
2119;SDS011;1066;52.540;13.420;2023-05-10T10:54:10;3.40;;;3.10;;
2119;SDS011;1066;52.540;13.420;2023-05-10T10:57:31;3.00;;;2.63;;
2119;SDS011;1066;52.540;13.420;2023-05-10T11:01:15;4.10;;;3.70;;
2119;SDS011;1066;52.540;13.420;2023-05-10T11:04:43;3.33;;;3.03;;
2119;SDS011;1066;52.540;13.420;2023-05-10T11:08:14;3.73;;;3.20;;
2119;SDS011;1066;52.540;13.420;2023-05-10T11:11:48;3.23;;;3.00;;
2119;SDS011;1066;52.540;13.420;2023-05-10T11:15:16;4.87;;;3.20;;
2119;SDS011;1066;52.540;13.420;2023-05-10T11:18:38;3.30;;;3.00;;
2119;SDS011;1066;52.540;13.420;2023-05-10T11:25:26;5.13;;;3.10;;
2119;SDS011;1066;52.540;13.420;2023-05-10T11:28:48;5.30;;;3.40;;
2119;SDS011;1066;52.540;13.420;2023-05-10T11:32:06;4.00;;;3.63;;
2119;SDS011;1066;52.540;13.420;2023-05-10T11:35:24;6.07;;;2.87;;
2119;SDS011;1066;52.540;13.420;2023-05-10T11:38:52;3.47;;;3.17;;
2119;SDS011;1066;52.540;13.420;2023-05-10T11:42:11;5.93;;;3.30;;
2119;SDS011;1066;52.540;13.420;2023-05-10T11:45:33;3.57;;;2.97;;
2119;SDS011;1066;52.540;13.420;2023-05-10T11:48:53;3.10;;;2.50;;
2119;SDS011;1066;52.540;13.420;2023-05-10T11:52:11;4.10;;;2.70;;
2119;SDS011;1066;52.540;13.420;2023-05-10T11:55:29;5.80;;;2.90;;
2119;SDS011;1066;52.540;13.420;2023-05-10T11:58:55;5.40;;;3.30;;
2119;SDS011;1066;52.540;13.420;2023-05-10T12:02:16;3.50;;;3.20;;
2119;SDS011;1066;52.540;13.420;2023-05-10T12:05:35;8.40;;;3.78;;
2119;SDS011;1066;52.540;13.420;2023-05-10T12:08:54;4.60;;;2.97;;
2119;SDS011;1066;52.540;13.420;2023-05-10T12:12:37;3.42;;;3.10;;
2119;SDS011;1066;52.540;13.420;2023-05-10T12:15:58;5.18;;;2.92;;
2119;SDS011;1066;52.540;13.420;2023-05-10T12:19:19;4.38;;;2.75;;
2119;SDS011;1066;52.540;13.420;2023-05-10T12:22:43;4.28;;;3.10;;
2119;SDS011;1066;52.540;13.420;2023-05-10T12:26:04;4.78;;;3.25;;
2119;SDS011;1066;52.540;13.420;2023-05-10T12:29:22;5.82;;;3.97;;
2119;SDS011;1066;52.540;13.420;2023-05-10T12:32:44;3.55;;;3.20;;
2119;SDS011;1066;52.540;13.420;2023-05-10T12:36:03;5.40;;;3.65;;
2119;SDS011;1066;52.540;13.420;2023-05-10T12:39:22;3.40;;;2.97;;
2119;SDS011;1066;52.540;13.420;2023-05-10T12:42:40;4.82;;;3.20;;
2119;SDS011;1066;52.540;13.420;2023-05-10T12:46:03;3.45;;;3.17;;
2119;SDS011;1066;52.540;13.420;2023-05-10T12:49:21;4.30;;;3.00;;
2119;SDS011;1066;52.540;13.420;2023-05-10T12:52:39;5.90;;;4.38;;
2119;SDS011;1066;52.540;13.420;2023-05-10T12:55:57;4.80;;;4.05;;
2119;SDS011;1066;52.540;13.420;2023-05-10T12:59:15;4.22;;;3.20;;
2119;SDS011;1066;52.540;13.420;2023-05-10T13:02:33;4.60;;;3.63;;
2119;SDS011;1066;52.540;13.420;2023-05-10T13:05:51;3.83;;;2.80;;
2119;SDS011;1066;52.540;13.420;2023-05-10T13:09:09;2.63;;;2.42;;
2119;SDS011;1066;52.540;13.420;2023-05-10T13:12:27;3.45;;;3.15;;
2119;SDS011;1066;52.540;13.420;2023-05-10T13:15:45;3.47;;;3.17;;
2119;SDS011;1066;52.540;13.420;2023-05-10T13:19:03;3.60;;;3.30;;
2119;SDS011;1066;52.540;13.420;2023-05-10T13:22:21;3.90;;;3.53;;
2119;SDS011;1066;52.540;13.420;2023-05-10T13:25:39;3.60;;;3.30;;
2119;SDS011;1066;52.540;13.420;2023-05-10T13:28:56;6.17;;;3.50;;
2119;SDS011;1066;52.540;13.420;2023-05-10T13:32:15;5.00;;;3.03;;
2119;SDS011;1066;52.540;13.420;2023-05-10T13:35:33;2.97;;;2.77;;
2119;SDS011;1066;52.540;13.420;2023-05-10T13:38:51;3.23;;;2.70;;
2119;SDS011;1066;52.540;13.420;2023-05-10T13:42:09;4.37;;;3.97;;
2119;SDS011;1066;52.540;13.420;2023-05-10T13:45:27;3.53;;;3.00;;
2119;SDS011;1066;52.540;13.420;2023-05-10T13:48:45;4.37;;;2.63;;
2119;SDS011;1066;52.540;13.420;2023-05-10T13:52:03;3.80;;;3.17;;
2119;SDS011;1066;52.540;13.420;2023-05-10T13:55:21;4.00;;;3.00;;
2119;SDS011;1066;52.540;13.420;2023-05-10T13:58:39;4.53;;;3.37;;
2119;SDS011;1066;52.540;13.420;2023-05-10T14:01:57;3.97;;;3.67;;
2119;SDS011;1066;52.540;13.420;2023-05-10T14:05:15;9.77;;;4.17;;
2119;SDS011;1066;52.540;13.420;2023-05-10T14:08:33;3.00;;;2.80;;
2119;SDS011;1066;52.540;13.420;2023-05-10T14:11:51;4.97;;;3.30;;
2119;SDS011;1066;52.540;13.420;2023-05-10T14:15:09;7.53;;;2.87;;
2119;SDS011;1066;52.540;13.420;2023-05-10T14:18:27;3.70;;;3.10;;
2119;SDS011;1066;52.540;13.420;2023-05-10T14:21:45;4.83;;;3.70;;
2119;SDS011;1066;52.540;13.420;2023-05-10T14:25:03;3.40;;;3.10;;
2119;SDS011;1066;52.540;13.420;2023-05-10T14:28:21;6.43;;;3.20;;
2119;SDS011;1066;52.540;13.420;2023-05-10T14:31:39;3.50;;;3.20;;
2119;SDS011;1066;52.540;13.420;2023-05-10T14:34:57;4.73;;;2.90;;
2119;SDS011;1066;52.540;13.420;2023-05-10T14:38:15;3.63;;;3.33;;
2119;SDS011;1066;52.540;13.420;2023-05-10T14:41:35;3.57;;;3.27;;
2119;SDS011;1066;52.540;13.420;2023-05-10T14:44:53;3.50;;;3.20;;
2119;SDS011;1066;52.540;13.420;2023-05-10T14:48:11;4.10;;;3.10;;
2119;SDS011;1066;52.540;13.420;2023-05-10T14:51:29;3.80;;;2.90;;
2119;SDS011;1066;52.540;13.420;2023-05-10T14:54:47;3.50;;;3.20;;
2119;SDS011;1066;52.540;13.420;2023-05-10T14:58:05;4.10;;;3.47;;
2119;SDS011;1066;52.540;13.420;2023-05-10T15:01:23;3.23;;;2.93;;
2119;SDS011;1066;52.540;13.420;2023-05-10T15:04:41;3.33;;;3.03;;
2119;SDS011;1066;52.540;13.420;2023-05-10T15:07:59;3.90;;;3.60;;
2119;SDS011;1066;52.540;13.420;2023-05-10T15:11:17;3.00;;;2.80;;
2119;SDS011;1066;52.540;13.420;2023-05-10T15:14:35;3.10;;;2.77;;
2119;SDS011;1066;52.540;13.420;2023-05-10T15:17:53;3.50;;;2.93;;
2119;SDS011;1066;52.540;13.420;2023-05-10T15:21:10;5.03;;;3.70;;
2119;SDS011;1066;52.540;13.420;2023-05-10T15:24:31;6.37;;;3.50;;
2119;SDS011;1066;52.540;13.420;2023-05-10T15:27:49;6.43;;;3.77;;
2119;SDS011;1066;52.540;13.420;2023-05-10T15:31:07;3.93;;;3.63;;
2119;SDS011;1066;52.540;13.420;2023-05-10T15:34:25;3.67;;;3.30;;
2119;SDS011;1066;52.540;13.420;2023-05-10T15:37:43;3.17;;;2.90;;
2119;SDS011;1066;52.540;13.420;2023-05-10T15:41:02;5.53;;;3.60;;
2119;SDS011;1066;52.540;13.420;2023-05-10T15:44:19;3.50;;;3.10;;
2119;SDS011;1066;52.540;13.420;2023-05-10T15:47:37;3.50;;;2.93;;
2119;SDS011;1066;52.540;13.420;2023-05-10T15:50:56;5.73;;;2.93;;
2119;SDS011;1066;52.540;13.420;2023-05-10T15:54:14;3.70;;;3.40;;
2119;SDS011;1066;52.540;13.420;2023-05-10T15:57:37;3.70;;;3.37;;
2119;SDS011;1066;52.540;13.420;2023-05-10T16:00:54;3.70;;;3.40;;
2119;SDS011;1066;52.540;13.420;2023-05-10T16:04:13;4.43;;;3.47;;
2119;SDS011;1066;52.540;13.420;2023-05-10T16:07:32;4.53;;;3.07;;
2119;SDS011;1066;52.540;13.420;2023-05-10T16:10:50;4.00;;;3.70;;
2119;SDS011;1066;52.540;13.420;2023-05-10T16:14:08;4.93;;;3.70;;
2119;SDS011;1066;52.540;13.420;2023-05-10T16:17:26;4.53;;;3.60;;
2119;SDS011;1066;52.540;13.420;2023-05-10T16:20:44;4.13;;;3.27;;
2119;SDS011;1066;52.540;13.420;2023-05-10T16:24:02;3.63;;;3.23;;
2119;SDS011;1066;52.540;13.420;2023-05-10T16:27:20;4.07;;;3.20;;
2119;SDS011;1066;52.540;13.420;2023-05-10T16:30:38;3.90;;;3.57;;
2119;SDS011;1066;52.540;13.420;2023-05-10T16:33:56;4.70;;;4.30;;
2119;SDS011;1066;52.540;13.420;2023-05-10T16:37:15;4.00;;;3.60;;
2119;SDS011;1066;52.540;13.420;2023-05-10T16:40:33;5.13;;;3.40;;
2119;SDS011;1066;52.540;13.420;2023-05-10T16:43:51;6.60;;;3.93;;
2119;SDS011;1066;52.540;13.420;2023-05-10T16:47:08;5.97;;;3.70;;
2119;SDS011;1066;52.540;13.420;2023-05-10T16:50:26;4.50;;;3.60;;
2119;SDS011;1066;52.540;13.420;2023-05-10T16:53:44;5.90;;;4.47;;
2119;SDS011;1066;52.540;13.420;2023-05-10T16:57:02;5.53;;;4.97;;
2119;SDS011;1066;52.540;13.420;2023-05-10T17:00:23;8.43;;;5.73;;
2119;SDS011;1066;52.540;13.420;2023-05-10T17:03:41;8.13;;;6.07;;
2119;SDS011;1066;52.540;13.420;2023-05-10T17:06:59;7.00;;;6.40;;
2119;SDS011;1066;52.540;13.420;2023-05-10T17:10:18;7.63;;;5.87;;
2119;SDS011;1066;52.540;13.420;2023-05-10T17:13:35;6.00;;;5.53;;
2119;SDS011;1066;52.540;13.420;2023-05-10T17:16:53;7.57;;;6.50;;
2119;SDS011;1066;52.540;13.420;2023-05-10T17:20:11;7.30;;;6.60;;
2119;SDS011;1066;52.540;13.420;2023-05-10T17:23:29;7.07;;;6.37;;
2119;SDS011;1066;52.540;13.420;2023-05-10T17:26:47;6.30;;;5.57;;
2119;SDS011;1066;52.540;13.420;2023-05-10T17:30:05;7.30;;;6.60;;
2119;SDS011;1066;52.540;13.420;2023-05-10T17:33:23;13.37;;;7.40;;
2119;SDS011;1066;52.540;13.420;2023-05-10T17:36:41;7.43;;;6.70;;
2119;SDS011;1066;52.540;13.420;2023-05-10T17:39:59;8.70;;;7.67;;
2119;SDS011;1066;52.540;13.420;2023-05-10T17:43:17;7.97;;;7.17;;
2119;SDS011;1066;52.540;13.420;2023-05-10T17:46:37;8.40;;;7.60;;
2119;SDS011;1066;52.540;13.420;2023-05-10T17:49:54;8.37;;;7.20;;
2119;SDS011;1066;52.540;13.420;2023-05-10T17:53:15;6.40;;;5.70;;
2119;SDS011;1066;52.540;13.420;2023-05-10T17:56:34;10.40;;;7.33;;
2119;SDS011;1066;52.540;13.420;2023-05-10T17:59:52;8.87;;;6.97;;
2119;SDS011;1066;52.540;13.420;2023-05-10T18:03:10;9.20;;;7.30;;
2119;SDS011;1066;52.540;13.420;2023-05-10T18:06:28;8.03;;;7.33;;
2119;SDS011;1066;52.540;13.420;2023-05-10T18:09:47;9.63;;;7.60;;
2119;SDS011;1066;52.540;13.420;2023-05-10T18:13:05;8.90;;;8.00;;
2119;SDS011;1066;52.540;13.420;2023-05-10T18:16:23;7.90;;;7.20;;
2119;SDS011;1066;52.540;13.420;2023-05-10T18:19:41;8.10;;;7.20;;
2119;SDS011;1066;52.540;13.420;2023-05-10T18:22:59;7.67;;;7.07;;
2119;SDS011;1066;52.540;13.420;2023-05-10T18:26:17;6.80;;;6.20;;
2119;SDS011;1066;52.540;13.420;2023-05-10T18:29:35;8.53;;;6.47;;
2119;SDS011;1066;52.540;13.420;2023-05-10T18:32:53;10.10;;;8.10;;
2119;SDS011;1066;52.540;13.420;2023-05-10T18:36:12;7.13;;;6.57;;
2119;SDS011;1066;52.540;13.420;2023-05-10T18:39:31;11.83;;;8.47;;
2119;SDS011;1066;52.540;13.420;2023-05-10T18:42:50;6.73;;;6.10;;
2119;SDS011;1066;52.540;13.420;2023-05-10T18:46:08;7.20;;;6.50;;
2119;SDS011;1066;52.540;13.420;2023-05-10T18:49:26;7.40;;;6.50;;
2119;SDS011;1066;52.540;13.420;2023-05-10T18:52:44;8.80;;;7.20;;
2119;SDS011;1066;52.540;13.420;2023-05-10T18:56:02;7.47;;;6.80;;
2119;SDS011;1066;52.540;13.420;2023-05-10T18:59:21;8.67;;;7.70;;
2119;SDS011;1066;52.540;13.420;2023-05-10T19:02:40;8.30;;;7.00;;
2119;SDS011;1066;52.540;13.420;2023-05-10T19:05:59;7.70;;;7.07;;
2119;SDS011;1066;52.540;13.420;2023-05-10T19:09:17;5.43;;;4.93;;
2119;SDS011;1066;52.540;13.420;2023-05-10T19:12:36;6.73;;;6.13;;
2119;SDS011;1066;52.540;13.420;2023-05-10T19:16:04;8.17;;;7.47;;
2119;SDS011;1066;52.540;13.420;2023-05-10T19:19:22;9.23;;;8.33;;
2119;SDS011;1066;52.540;13.420;2023-05-10T19:22:40;7.80;;;7.10;;
2119;SDS011;1066;52.540;13.420;2023-05-10T19:25:58;6.83;;;6.23;;
2119;SDS011;1066;52.540;13.420;2023-05-10T19:29:16;7.00;;;6.27;;
2119;SDS011;1066;52.540;13.420;2023-05-10T19:32:34;8.50;;;7.00;;
2119;SDS011;1066;52.540;13.420;2023-05-10T19:35:52;7.63;;;7.03;;
2119;SDS011;1066;52.540;13.420;2023-05-10T19:39:10;7.03;;;6.37;;
2119;SDS011;1066;52.540;13.420;2023-05-10T19:42:28;7.97;;;7.27;;
2119;SDS011;1066;52.540;13.420;2023-05-10T19:45:46;6.90;;;6.30;;
2119;SDS011;1066;52.540;13.420;2023-05-10T19:49:04;8.30;;;7.50;;
2119;SDS011;1066;52.540;13.420;2023-05-10T19:52:22;7.60;;;6.90;;
2119;SDS011;1066;52.540;13.420;2023-05-10T19:55:40;8.73;;;7.90;;
2119;SDS011;1066;52.540;13.420;2023-05-10T19:58:58;6.77;;;6.17;;
2119;SDS011;1066;52.540;13.420;2023-05-10T20:02:16;6.63;;;6.13;;
2119;SDS011;1066;52.540;13.420;2023-05-10T20:05:34;7.70;;;6.67;;
2119;SDS011;1066;52.540;13.420;2023-05-10T20:08:51;7.57;;;6.77;;
2119;SDS011;1066;52.540;13.420;2023-05-10T20:12:09;7.40;;;6.73;;
2119;SDS011;1066;52.540;13.420;2023-05-10T20:15:27;10.27;;;6.80;;
2119;SDS011;1066;52.540;13.420;2023-05-10T20:18:45;7.17;;;6.53;;
2119;SDS011;1066;52.540;13.420;2023-05-10T20:22:03;9.10;;;7.50;;
2119;SDS011;1066;52.540;13.420;2023-05-10T20:25:21;7.40;;;6.80;;
2119;SDS011;1066;52.540;13.420;2023-05-10T20:28:39;12.57;;;7.23;;
2119;SDS011;1066;52.540;13.420;2023-05-10T20:31:57;10.27;;;8.10;;
2119;SDS011;1066;52.540;13.420;2023-05-10T20:35:15;7.10;;;6.53;;
2119;SDS011;1066;52.540;13.420;2023-05-10T20:38:33;7.50;;;6.90;;
2119;SDS011;1066;52.540;13.420;2023-05-10T20:41:52;7.93;;;6.30;;
2119;SDS011;1066;52.540;13.420;2023-05-10T20:45:11;8.90;;;8.00;;
2119;SDS011;1066;52.540;13.420;2023-05-10T20:48:30;10.33;;;9.40;;